Terminal Aerodrome Forecast
Issued by NWS Jacksonville, FL

Home | Current Version | Previous Version | Text Only | Print | Product List | Glossary On
Versions: 1 2 3 4 5 6 7 8 9 10 11 12 13 14 15 16 17 18 19 20 21 22 23 24 25 26 27
239
FTUS42 KJAX 210526
TAFGNV
TAF
KGNV 210526Z 2106/2206 09003KT P6SM FEW070 BKN120 BKN200
     FM211600 10006KT P6SM VCTS SCT025CB BKN100 BKN200 PROB30
      2116/2120 VRB10G20KT 3SM +TSRA BR BKN030CB OVC070=

USA.gov is the U.S. government's official web portal to all federal, state and local government web resources and services.